Navigator Spirit — C6WL4 — position and weather

sailwx.info

Track history (hours):
 
Tides and Currents Weather Stations Pressure Air Temp Water Temp Dewpoint Dewpoint Depression Visibility Wind Speed Wind Dir Waves Ship Positions

Navigator Spirit

Last reported at 2018-Apr-18 18:55 UTC. Time now 2018-Apr-24 01:10 UTC.
Position N 28°35' W 094°26'.

Length 241 m; draft 8.5 m.

Type: Tanker. MMSI: 309198000.

Date/timePositionNaut miles runAvg speedWind from/ knotsBaromVisibWave heightAir tempDewpointWater temp
2018-Apr-18 18:55N 28°35' W 094°26'5 1.8
2018-Apr-18 16:20N 28°32' W 094°21'0 0.1
2018-Apr-18 14:30N 28°32' W 094°21'0 0.0
2018-Apr-18 12:00N 28°32' W 094°21'0 0.0
2018-Apr-18 11:15N 28°32' W 094°21'0 0.1
2018-Apr-18 10:57N 28°32' W 094°21'0 0.1
2018-Apr-18 10:30N 28°32' W 094°21'0 0.0
2018-Apr-18 09:51N 28°32' W 094°21'0 0.1
2018-Apr-18 09:30N 28°32' W 094°21'0 0.0
2018-Apr-18 08:51N 28°32' W 094°21'0 0.0
2018-Apr-18 08:30N 28°32' W 094°21'0 0.1
2018-Apr-18 08:00N 28°32' W 094°21'0 0.0
2018-Apr-18 07:18N 28°32' W 094°21'0 0.1
2018-Apr-18 07:00N 28°32' W 094°21'0 0.0
2018-Apr-18 04:42N 28°32' W 094°21'0 0.0
2018-Apr-18 04:18N 28°32' W 094°21'0 0.3
2018-Apr-18 04:00N 28°32' W 094°21'0 0.1
2018-Apr-18 03:30N 28°32' W 094°21'0 0.0
2018-Apr-18 03:00N 28°32' W 094°21'0 0.1
2018-Apr-18 02:24N 28°32' W 094°21'0 0.0
2018-Apr-18 01:57N 28°32' W 094°21'0 0.1
2018-Apr-18 01:24N 28°32' W 094°21'0 0.0
2018-Apr-18 00:57N 28°32' W 094°21'0 0.0
2018-Apr-17 23:09N 28°32' W 094°21'0 0.0
2018-Apr-17 14:27N 28°32' W 094°21'1 2.3
2018-Apr-17 13:59N 28°32' W 094°22'2 3.9
2018-Apr-17 13:26N 28°32' W 094°20'2 5.4
2018-Apr-17 13:00N 28°34' W 094°18'3 5.2
2018-Apr-17 12:29N 28°36' W 094°16'1 2.1
2018-Apr-17 11:53N 28°37' W 094°15'1 3.7
2018-Apr-17 11:30N 28°37' W 094°13'1 0.6
2018-Apr-17 10:24N 28°38' W 094°13'0 0.0
2018-Apr-17 09:30N 28°38' W 094°13'0 0.1
2018-Apr-17 08:57N 28°38' W 094°13'0 0.0
2018-Apr-17 08:30N 28°38' W 094°13'0 0.1
2018-Apr-17 08:00N 28°38' W 094°13'0 0.1
2018-Apr-17 07:30N 28°38' W 094°13'0 0.0
2018-Apr-17 07:00N 28°38' W 094°13'0 0.1
2018-Apr-17 06:30N 28°38' W 094°13'0 0.0
2018-Apr-17 06:00N 28°38' W 094°13'0 0.1
2018-Apr-17 05:30N 28°38' W 094°13'0 0.0
2018-Apr-17 05:00N 28°38' W 094°13'0 0.0
2018-Apr-17 04:30N 28°38' W 094°13'0 0.0
2018-Apr-17 04:00N 28°38' W 094°13'0 0.0
2018-Apr-17 03:27N 28°38' W 094°13'0 0.1
2018-Apr-17 01:21N 28°38' W 094°13'  
Track history (hours):
 
Tides and Currents Weather Stations Pressure Air Temp Water Temp Dewpoint Dewpoint Depression Visibility Wind Speed Wind Dir Waves Ship Positions

Navigator Spirit

Last reported at 2018-Apr-18 18:55 UTC. Time now 2018-Apr-24 01:10 UTC.
Position N 28°35' W 094°26'.

Length 241 m; draft 8.5 m.

Type: Tanker. MMSI: 309198000.

Date/timePositionNaut miles runAvg speedWind from/ knotsBaromVisibWave heightAir tempDewpointWater temp
2018-Apr-18 18:55N 28°35' W 094°26'5 1.8
2018-Apr-18 16:20N 28°32' W 094°21'0 0.1
2018-Apr-18 14:30N 28°32' W 094°21'0 0.0
2018-Apr-18 12:00N 28°32' W 094°21'0 0.0
2018-Apr-18 11:15N 28°32' W 094°21'0 0.1
2018-Apr-18 10:57N 28°32' W 094°21'0 0.1
2018-Apr-18 10:30N 28°32' W 094°21'0 0.0
2018-Apr-18 09:51N 28°32' W 094°21'0 0.1
2018-Apr-18 09:30N 28°32' W 094°21'0 0.0
2018-Apr-18 08:51N 28°32' W 094°21'0 0.0
2018-Apr-18 08:30N 28°32' W 094°21'0 0.1
2018-Apr-18 08:00N 28°32' W 094°21'0 0.0
2018-Apr-18 07:18N 28°32' W 094°21'0 0.1
2018-Apr-18 07:00N 28°32' W 094°21'0 0.0
2018-Apr-18 04:42N 28°32' W 094°21'0 0.0
2018-Apr-18 04:18N 28°32' W 094°21'0 0.3
2018-Apr-18 04:00N 28°32' W 094°21'0 0.1
2018-Apr-18 03:30N 28°32' W 094°21'0 0.0
2018-Apr-18 03:00N 28°32' W 094°21'0 0.1
2018-Apr-18 02:24N 28°32' W 094°21'0 0.0
2018-Apr-18 01:57N 28°32' W 094°21'0 0.1
2018-Apr-18 01:24N 28°32' W 094°21'0 0.0
2018-Apr-18 00:57N 28°32' W 094°21'0 0.0
2018-Apr-17 23:09N 28°32' W 094°21'0 0.0
2018-Apr-17 14:27N 28°32' W 094°21'1 2.3
2018-Apr-17 13:59N 28°32' W 094°22'2 3.9
2018-Apr-17 13:26N 28°32' W 094°20'2 5.4
2018-Apr-17 13:00N 28°34' W 094°18'3 5.2
2018-Apr-17 12:29N 28°36' W 094°16'1 2.1
2018-Apr-17 11:53N 28°37' W 094°15'1 3.7
2018-Apr-17 11:30N 28°37' W 094°13'1 0.6
2018-Apr-17 10:24N 28°38' W 094°13'0 0.0
2018-Apr-17 09:30N 28°38' W 094°13'0 0.1
2018-Apr-17 08:57N 28°38' W 094°13'0 0.0
2018-Apr-17 08:30N 28°38' W 094°13'0 0.1
2018-Apr-17 08:00N 28°38' W 094°13'0 0.1
2018-Apr-17 07:30N 28°38' W 094°13'0 0.0
2018-Apr-17 07:00N 28°38' W 094°13'0 0.1
2018-Apr-17 06:30N 28°38' W 094°13'0 0.0
2018-Apr-17 06:00N 28°38' W 094°13'0 0.1
2018-Apr-17 05:30N 28°38' W 094°13'0 0.0
2018-Apr-17 05:00N 28°38' W 094°13'0 0.0
2018-Apr-17 04:30N 28°38' W 094°13'0 0.0
2018-Apr-17 04:00N 28°38' W 094°13'0 0.0
2018-Apr-17 03:27N 28°38' W 094°13'0 0.1
2018-Apr-17 01:21N 28°38' W 094°13'  

Dump ship's entire track history